ID-0116 weather

Public forecast

Using degrees Celsius for public forecast. Weather courtesy of forecast.io.

Closest aviation weather report (METAR) to Panggema/Hasan Airport

Closest report is Sentani International Airport, 115.8 nm (214.4 km) NE. Retrieved 2020/08/14 00:00 UTC (5 minutes ago):

WAJJ 140000Z 29004KT 9999 SCT012 27/24 Q1011 NOSIG

Closest aviation forecast (TAF) to Panggema/Hasan Airport

Forecast is more than 12 hours old.

Closest forecast is Sentani International Airport, 115.8 nm (214.4 km) NE. Retrieved 2013/03/11 12:00 UTC (7 years ago):

TAF WAJJ 111100Z 1112/1212 29006KT 5000 HZ SCT016 TEMPO 1113/1121 4000 RA FEW014CB BECMG 1200/1202 28012KT 9999 TEMPO 1207/1212 6000 RA FEW014CB